Time,TemperatureF,DewpointF,PressureIn,WindDirection,WindDirectionDegrees,WindSpeedMPH,WindSpeedGustMPH,Humidity,HourlyPrecipIn,Conditions,Clouds,dailyrainin,SoftwareType,DateUTC
2013-03-01 00:01:00,28.0,23.0,-100.00,NE,45,1.0,4.0,80,-99.99,,,-99.99,,2013-03-01 07:01:00,
2013-03-01 00:11:00,28.0,23.0,-100.00,NE,45,1.0,4.0,80,-99.99,,,-99.99,,2013-03-01 07:11:00,
2013-03-01 00:21:00,27.0,21.0,-100.00,NNE,31,0.0,2.0,77,-99.99,,,-99.99,,2013-03-01 07:21:00,
2013-03-01 00:32:00,27.0,21.0,-100.00,NNE,31,0.0,2.0,77,-99.99,,,-99.99,,2013-03-01 07:32:00,
2013-03-01 00:42:00,27.0,21.0,-100.00,NNE,31,0.0,2.0,77,-99.99,,,-99.99,,2013-03-01 07:42:00,
2013-03-01 01:32:00,27.0,23.0,-100.00,East,89,1.0,4.0,84,-99.99,,,-99.99,,2013-03-01 08:32:00,
2013-03-01 01:42:00,27.0,23.0,-100.00,East,89,1.0,4.0,84,-99.99,,,-99.99,,2013-03-01 08:42:00,
2013-03-01 01:52:00,27.0,22.0,-100.00,NNE,31,1.0,3.0,81,-99.99,,,-99.99,,2013-03-01 08:52:00,
2013-03-01 02:02:00,26.0,22.0,-100.00,SSE,159,2.0,4.0,85,-99.99,,,-99.99,,2013-03-01 09:02:00,
2013-03-01 02:11:00,26.0,22.0,-100.00,SSE,159,2.0,4.0,85,-99.99,,,-99.99,,2013-03-01 09:11:00,
2013-03-01 02:22:00,28.0,25.0,-100.00,NE,42,3.0,7.0,88,-99.99,,,-99.99,,2013-03-01 09:22:00,
2013-03-01 02:32:00,28.0,25.0,-100.00,ENE,60,4.0,9.0,88,-99.99,,,-99.99,,2013-03-01 09:32:00,
2013-03-01 02:42:00,28.0,25.0,-100.00,ENE,60,4.0,9.0,88,-99.99,,,-99.99,,2013-03-01 09:42:00,
2013-03-01 02:52:00,28.0,25.0,-100.00,NNW,336,3.0,7.0,89,-99.99,,,-99.99,,2013-03-01 09:52:00,
2013-03-01 03:01:00,27.0,24.0,-100.00,NNW,348,2.0,5.0,89,-99.99,,,-99.99,,2013-03-01 10:01:00,
2013-03-01 03:11:00,27.0,24.0,-100.00,NNW,348,2.0,5.0,89,-99.99,,,-99.99,,2013-03-01 10:11:00,
2013-03-01 03:21:00,25.0,24.0,-100.00,NW,311,1.0,2.0,94,-99.99,,,-99.99,,2013-03-01 10:21:00,
2013-03-01 03:32:00,25.0,24.0,-100.00,NW,304,2.0,4.0,96,-99.99,,,-99.99,,2013-03-01 10:32:00,
2013-03-01 03:42:00,25.0,24.0,-100.00,NW,304,2.0,4.0,96,-99.99,,,-99.99,,2013-03-01 10:42:00,
2013-03-01 03:52:00,25.0,24.0,-100.00,SE,135,1.0,2.0,97,-99.99,,,-99.99,,2013-03-01 10:52:00,
2013-03-01 04:01:00,26.0,26.0,-100.00,North,4,1.0,4.0,98,-99.99,,,-99.99,,2013-03-01 11:01:00,
2013-03-01 04:11:00,26.0,26.0,-100.00,North,4,1.0,4.0,98,-99.99,,,-99.99,,2013-03-01 11:11:00,
2013-03-01 04:22:00,26.0,25.0,-100.00,NW,305,1.0,4.0,96,-99.99,,,-99.99,,2013-03-01 11:22:00,
2013-03-01 04:32:00,25.0,24.0,-100.00,SE,144,1.0,2.0,96,-99.99,,,-99.99,,2013-03-01 11:32:00,
2013-03-01 04:41:00,25.0,24.0,-100.00,SE,144,1.0,2.0,96,-99.99,,,-99.99,,2013-03-01 11:41:00,
2013-03-01 04:52:00,28.0,26.0,-100.00,NNW,342,0.0,3.0,93,-99.99,,,-99.99,,2013-03-01 11:52:00,
2013-03-01 05:01:00,27.0,25.0,-100.00,WNW,287,0.0,1.0,92,-99.99,,,-99.99,,2013-03-01 12:01:00,
2013-03-01 05:11:00,27.0,25.0,-100.00,WNW,287,0.0,1.0,92,-99.99,,,-99.99,,2013-03-01 12:11:00,
2013-03-01 05:21:00,27.0,26.0,-100.00,NNE,17,1.0,2.0,94,-99.99,,,-99.99,,2013-03-01 12:21:00,
2013-03-01 05:32:00,28.0,26.0,-100.00,ENE,66,1.0,3.0,93,-99.99,,,-99.99,,2013-03-01 12:32:00,
2013-03-01 05:42:00,28.0,26.0,-100.00,ENE,66,1.0,3.0,93,-99.99,,,-99.99,,2013-03-01 12:42:00,
2013-03-01 05:52:00,28.0,26.0,-100.00,NNE,14,2.0,4.0,93,-99.99,,,-99.99,,2013-03-01 12:52:00,
2013-03-01 06:01:00,27.0,26.0,-100.00,ESE,114,2.0,5.0,95,-99.99,,,-99.99,,2013-03-01 13:01:00,
2013-03-01 06:11:00,27.0,26.0,-100.00,ESE,114,2.0,5.0,95,-99.99,,,-99.99,,2013-03-01 13:11:00,
2013-03-01 06:21:00,27.0,26.0,-100.00,WNW,290,2.0,3.0,94,-99.99,,,-99.99,,2013-03-01 13:21:00,
2013-03-01 06:32:00,27.0,26.0,-100.00,North,355,2.0,4.0,96,-99.99,,,-99.99,,2013-03-01 13:32:00,
2013-03-01 06:41:00,27.0,26.0,-100.00,North,355,2.0,4.0,96,-99.99,,,-99.99,,2013-03-01 13:41:00,
2013-03-01 06:51:00,28.0,27.0,-100.00,ESE,105,2.0,4.0,96,-99.99,,,-99.99,,2013-03-01 13:51:00,
2013-03-01 07:01:00,27.0,26.0,-100.00,NNE,22,1.0,4.0,96,-99.99,,,-99.99,,2013-03-01 14:01:00,
2013-03-01 07:11:00,27.0,26.0,-100.00,NNE,22,1.0,4.0,96,-99.99,,,-99.99,,2013-03-01 14:11:00,
2013-03-01 07:21:00,27.0,26.0,-100.00,WNW,303,1.0,2.0,96,-99.99,,,-99.99,,2013-03-01 14:21:00,
2013-03-01 07:32:00,26.0,25.0,-100.00,ENE,72,0.0,1.0,97,-99.99,,,-99.99,,2013-03-01 14:32:00,
2013-03-01 07:41:00,26.0,25.0,-100.00,ENE,72,0.0,1.0,97,-99.99,,,-99.99,,2013-03-01 14:41:00,
2013-03-01 07:52:00,27.0,27.0,-100.00,ENE,62,0.0,2.0,98,-99.99,,,-99.99,,2013-03-01 14:52:00,
2013-03-01 08:01:00,26.0,26.0,-100.00,WNW,292,1.0,2.0,98,-99.99,,,-99.99,,2013-03-01 15:01:00,
2013-03-01 08:11:00,26.0,26.0,-100.00,WNW,292,1.0,2.0,98,-99.99,,,-99.99,,2013-03-01 15:11:00,
2013-03-01 08:21:00,27.0,27.0,-100.00,SE,133,1.0,3.0,98,-99.99,,,-99.99,,2013-03-01 15:21:00,
2013-03-01 08:31:00,27.0,27.0,-100.00,NW,318,1.0,4.0,98,-99.99,,,-99.99,,2013-03-01 15:31:00,
2013-03-01 08:42:00,27.0,27.0,-100.00,NW,318,1.0,4.0,98,-99.99,,,-99.99,,2013-03-01 15:42:00,
2013-03-01 08:52:00,27.0,27.0,-100.00,North,356,0.0,3.0,99,-99.99,,,-99.99,,2013-03-01 15:52:00,
2013-03-01 09:01:00,28.0,27.0,-100.00,ENE,70,1.0,3.0,97,-99.99,,,-99.99,,2013-03-01 16:01:00,
2013-03-01 09:11:00,28.0,27.0,-100.00,ENE,70,1.0,3.0,97,-99.99,,,-99.99,,2013-03-01 16:11:00,
2013-03-01 09:21:00,28.0,27.0,-100.00,NE,52,1.0,2.0,95,-99.99,,,-99.99,,2013-03-01 16:21:00,
2013-03-01 09:31:00,29.0,28.0,-100.00,WNW,287,1.0,2.0,95,-99.99,,,-99.99,,2013-03-01 16:31:00,
2013-03-01 09:41:00,29.0,28.0,-100.00,WNW,287,1.0,2.0,95,-99.99,,,-99.99,,2013-03-01 16:41:00,
2013-03-01 09:51:00,29.0,28.0,-100.00,NE,39,1.0,3.0,95,-99.99,,,-99.99,,2013-03-01 16:51:00,
2013-03-01 10:01:00,29.0,27.0,-100.00,North,354,1.0,5.0,93,-99.99,,,-99.99,,2013-03-01 17:01:00,
2013-03-01 10:11:00,29.0,27.0,-100.00,North,354,1.0,5.0,93,-99.99,,,-99.99,,2013-03-01 17:11:00,
2013-03-01 10:21:00,30.0,28.0,-100.00,ENE,61,1.0,3.0,92,-99.99,,,-99.99,,2013-03-01 17:21:00,
2013-03-01 10:31:00,31.0,28.0,-100.00,NE,45,1.0,3.0,88,-99.99,,,-99.99,,2013-03-01 17:31:00,
2013-03-01 10:41:00,31.0,28.0,-100.00,NE,45,1.0,3.0,88,-99.99,,,-99.99,,2013-03-01 17:41:00,
2013-03-01 10:52:00,31.0,28.0,-100.00,ENE,68,3.0,7.0,88,-99.99,,,-99.99,,2013-03-01 17:52:00,
2013-03-01 11:01:00,31.0,28.0,-100.00,NE,35,2.0,5.0,87,-99.99,,,-99.99,,2013-03-01 18:01:00,
2013-03-01 11:12:00,31.0,28.0,-100.00,NE,35,2.0,5.0,87,-99.99,,,-99.99,,2013-03-01 18:12:00,
2013-03-01 11:22:00,32.0,28.0,-100.00,ENE,69,3.0,6.0,86,-99.99,,,-99.99,,2013-03-01 18:22:00,
2013-03-01 11:31:00,32.0,28.0,-100.00,ENE,59,2.0,6.0,85,-99.99,,,-99.99,,2013-03-01 18:31:00,
2013-03-01 11:41:00,32.0,28.0,-100.00,ENE,59,2.0,6.0,85,-99.99,,,-99.99,,2013-03-01 18:41:00,
2013-03-01 11:52:00,33.0,28.0,-100.00,ENE,72,2.0,5.0,83,-99.99,,,-99.99,,2013-03-01 18:52:00,
2013-03-01 12:01:00,33.0,28.0,-100.00,East,89,2.0,4.0,83,-99.99,,,-99.99,,2013-03-01 19:01:00,
2013-03-01 12:11:00,33.0,28.0,-100.00,East,89,2.0,4.0,83,-99.99,,,-99.99,,2013-03-01 19:11:00,
2013-03-01 12:21:00,32.0,28.0,-100.00,NE,36,2.0,5.0,84,-99.99,,,-99.99,,2013-03-01 19:21:00,
2013-03-01 12:31:00,33.0,28.0,-100.00,ENE,73,2.0,3.0,82,-99.99,,,-99.99,,2013-03-01 19:31:00,
2013-03-01 12:41:00,33.0,28.0,-100.00,ENE,73,2.0,3.0,82,-99.99,,,-99.99,,2013-03-01 19:41:00,
2013-03-01 12:51:00,32.0,28.0,-100.00,NE,47,2.0,6.0,86,-99.99,,,-99.99,,2013-03-01 19:51:00,
2013-03-01 13:01:00,34.0,29.0,-100.00,ENE,66,2.0,4.0,82,-99.99,,,-99.99,,2013-03-01 20:01:00,
2013-03-01 13:11:00,34.0,29.0,-100.00,ENE,66,2.0,4.0,82,-99.99,,,-99.99,,2013-03-01 20:11:00,
2013-03-01 13:21:00,34.0,29.0,-100.00,ENE,63,2.0,4.0,82,-99.99,,,-99.99,,2013-03-01 20:21:00,
2013-03-01 13:31:00,35.0,29.0,-100.00,East,89,2.0,5.0,80,-99.99,,,-99.99,,2013-03-01 20:31:00,
2013-03-01 13:41:00,35.0,29.0,-100.00,East,89,2.0,5.0,80,-99.99,,,-99.99,,2013-03-01 20:41:00,
2013-03-01 13:52:00,36.0,29.0,-100.00,NE,54,1.0,3.0,77,-99.99,,,-99.99,,2013-03-01 20:52:00,
2013-03-01 14:01:00,35.0,29.0,-100.00,NW,308,4.0,7.0,80,-99.99,,,-99.99,,2013-03-01 21:01:00,
2013-03-01 14:11:00,35.0,29.0,-100.00,NW,308,4.0,7.0,80,-99.99,,,-99.99,,2013-03-01 21:11:00,
2013-03-01 14:21:00,37.0,30.0,-100.00,NE,51,1.0,4.0,76,-99.99,,,-99.99,,2013-03-01 21:21:00,
2013-03-01 14:31:00,38.0,29.0,-100.00,SE,126,2.0,4.0,71,-99.99,,,-99.99,,2013-03-01 21:31:00,
2013-03-01 14:41:00,38.0,29.0,-100.00,SE,126,2.0,4.0,71,-99.99,,,-99.99,,2013-03-01 21:41:00,
2013-03-01 14:51:00,35.0,29.0,-100.00,NE,39,2.0,4.0,78,-99.99,,,-99.99,,2013-03-01 21:51:00,
2013-03-01 15:01:00,36.0,29.0,-100.00,North,351,1.0,3.0,75,-99.99,,,-99.99,,2013-03-01 22:01:00,
2013-03-01 15:11:00,36.0,29.0,-100.00,North,351,1.0,3.0,75,-99.99,,,-99.99,,2013-03-01 22:11:00,
2013-03-01 15:21:00,36.0,29.0,-100.00,WNW,297,2.0,4.0,75,-99.99,,,-99.99,,2013-03-01 22:21:00,
2013-03-01 15:31:00,37.0,29.0,-100.00,North,11,1.0,2.0,74,-99.99,,,-99.99,,2013-03-01 22:31:00,
2013-03-01 15:41:00,37.0,29.0,-100.00,North,11,1.0,2.0,74,-99.99,,,-99.99,,2013-03-01 22:41:00,
2013-03-01 15:51:00,38.0,30.0,-100.00,ENE,66,1.0,3.0,72,-99.99,,,-99.99,,2013-03-01 22:51:00,
2013-03-01 16:01:00,38.0,30.0,-100.00,NE,44,1.0,4.0,72,-99.99,,,-99.99,,2013-03-01 23:01:00,
2013-03-01 16:11:00,38.0,30.0,-100.00,NE,44,1.0,4.0,72,-99.99,,,-99.99,,2013-03-01 23:11:00,
2013-03-01 16:21:00,36.0,29.0,-100.00,ENE,68,1.0,3.0,75,-99.99,,,-99.99,,2013-03-01 23:21:00,
2013-03-01 16:31:00,35.0,28.0,-100.00,East,101,1.0,3.0,75,-99.99,,,-99.99,,2013-03-01 23:31:00,
2013-03-01 16:41:00,35.0,28.0,-100.00,East,101,1.0,3.0,75,-99.99,,,-99.99,,2013-03-01 23:41:00,
2013-03-01 16:52:00,36.0,28.0,-100.00,NE,34,3.0,5.0,71,-99.99,,,-99.99,,2013-03-01 23:52:00,
2013-03-01 17:01:00,35.0,27.0,-100.00,NE,55,2.0,5.0,71,-99.99,,,-99.99,,2013-03-02 00:01:00,
2013-03-01 17:11:00,35.0,27.0,-100.00,NE,55,2.0,5.0,71,-99.99,,,-99.99,,2013-03-02 00:11:00,
2013-03-01 17:21:00,34.0,26.0,-100.00,NNW,335,2.0,3.0,72,-99.99,,,-99.99,,2013-03-02 00:21:00,
2013-03-01 17:31:00,34.0,26.0,-100.00,NNE,24,2.0,6.0,72,-99.99,,,-99.99,,2013-03-02 00:31:00,
2013-03-01 17:42:00,34.0,26.0,-100.00,NNE,24,2.0,6.0,72,-99.99,,,-99.99,,2013-03-02 00:42:00,
2013-03-01 17:52:00,34.0,26.0,-100.00,East,88,1.0,4.0,71,-99.99,,,-99.99,,2013-03-02 00:52:00,
2013-03-01 18:01:00,32.0,25.0,-100.00,NNE,17,1.0,4.0,75,-99.99,,,-99.99,,2013-03-02 01:01:00,
2013-03-01 18:11:00,32.0,25.0,-100.00,NNE,17,1.0,4.0,75,-99.99,,,-99.99,,2013-03-02 01:11:00,
2013-03-01 18:21:00,32.0,25.0,-100.00,North,354,2.0,6.0,76,-99.99,,,-99.99,,2013-03-02 01:21:00,
2013-03-01 18:31:00,32.0,25.0,-100.00,South,170,1.0,3.0,76,-99.99,,,-99.99,,2013-03-02 01:31:00,
2013-03-01 18:41:00,32.0,25.0,-100.00,South,170,1.0,3.0,76,-99.99,,,-99.99,,2013-03-02 01:41:00,
2013-03-01 18:51:00,31.0,26.0,-100.00,SE,134,2.0,4.0,80,-99.99,,,-99.99,,2013-03-02 01:51:00,
2013-03-01 19:01:00,30.0,25.0,-100.00,South,184,1.0,2.0,81,-99.99,,,-99.99,,2013-03-02 02:01:00,
2013-03-01 19:11:00,30.0,25.0,-100.00,South,184,1.0,2.0,81,-99.99,,,-99.99,,2013-03-02 02:11:00,
2013-03-01 19:21:00,29.0,24.0,-100.00,SSW,203,0.0,1.0,82,-99.99,,,-99.99,,2013-03-02 02:21:00,
2013-03-01 19:31:00,28.0,24.0,-100.00,SSE,158,1.0,2.0,86,-99.99,,,-99.99,,2013-03-02 02:31:00,
2013-03-01 19:41:00,28.0,24.0,-100.00,SSE,158,1.0,2.0,86,-99.99,,,-99.99,,2013-03-02 02:41:00,
2013-03-01 19:52:00,28.0,25.0,-100.00,SSW,210,1.0,2.0,88,-99.99,,,-99.99,,2013-03-02 02:52:00,
2013-03-01 20:01:00,28.0,25.0,-100.00,SSW,210,1.0,2.0,88,-99.99,,,-99.99,,2013-03-02 03:01:00,
2013-03-01 20:11:00,28.0,25.0,-100.00,SSW,210,1.0,2.0,88,-99.99,,,-99.99,,2013-03-02 03:11:00,
2013-03-01 20:21:00,29.0,26.0,-100.00,SSE,158,1.0,2.0,87,-99.99,,,-99.99,,2013-03-02 03:21:00,
2013-03-01 20:32:00,29.0,26.0,-100.00,South,169,1.0,3.0,87,-99.99,,,-99.99,,2013-03-02 03:32:00,
2013-03-01 20:41:00,29.0,26.0,-100.00,South,169,1.0,3.0,87,-99.99,,,-99.99,,2013-03-02 03:41:00,
2013-03-01 20:52:00,28.0,25.0,-100.00,NW,316,1.0,3.0,87,-99.99,,,-99.99,,2013-03-02 03:52:00,
2013-03-01 21:01:00,27.0,24.0,-100.00,North,0,0.0,0.0,88,-99.99,,,-99.99,,2013-03-02 04:01:00,
2013-03-01 21:11:00,27.0,24.0,-100.00,North,0,0.0,0.0,88,-99.99,,,-99.99,,2013-03-02 04:11:00,
2013-03-01 21:21:00,27.0,25.0,-100.00,SSE,152,1.0,2.0,91,-99.99,,,-99.99,,2013-03-02 04:21:00,
2013-03-01 21:31:00,26.0,24.0,-100.00,South,175,0.0,2.0,92,-99.99,,,-99.99,,2013-03-02 04:31:00,
2013-03-01 21:41:00,26.0,24.0,-100.00,South,175,0.0,2.0,92,-99.99,,,-99.99,,2013-03-02 04:41:00,
2013-03-01 21:51:00,26.0,24.0,-100.00,East,82,0.0,1.0,92,-99.99,,,-99.99,,2013-03-02 04:51:00,
2013-03-01 22:01:00,26.0,23.0,-100.00,ESE,114,1.0,2.0,89,-99.99,,,-99.99,,2013-03-02 05:01:00,
2013-03-01 22:12:00,26.0,23.0,-100.00,ESE,114,1.0,2.0,89,-99.99,,,-99.99,,2013-03-02 05:12:00,
2013-03-01 22:22:00,24.0,21.0,-100.00,West,273,0.0,2.0,89,-99.99,,,-99.99,,2013-03-02 05:22:00,
2013-03-01 22:31:00,23.0,21.0,-100.00,South,171,0.0,1.0,92,-99.99,,,-99.99,,2013-03-02 05:31:00,
2013-03-01 22:41:00,23.0,21.0,-100.00,South,171,0.0,1.0,92,-99.99,,,-99.99,,2013-03-02 05:41:00,
2013-03-01 22:52:00,23.0,21.0,-100.00,South,188,0.0,1.0,93,-99.99,,,-99.99,,2013-03-02 05:52:00,
2013-03-01 23:01:00,24.0,23.0,-100.00,SSW,199,1.0,3.0,94,-99.99,,,-99.99,,2013-03-02 06:01:00,
2013-03-01 23:11:00,24.0,23.0,-100.00,SSW,199,1.0,3.0,94,-99.99,,,-99.99,,2013-03-02 06:11:00,
2013-03-01 23:21:00,23.0,22.0,-100.00,North,0,0.0,0.0,94,-99.99,,,-99.99,,2013-03-02 06:21:00,
2013-03-01 23:31:00,23.0,22.0,-100.00,SW,219,0.0,1.0,96,-99.99,,,-99.99,,2013-03-02 06:31:00,
2013-03-01 23:41:00,23.0,22.0,-100.00,SW,219,0.0,1.0,96,-99.99,,,-99.99,,2013-03-02 06:41:00,
2013-03-01 23:51:00,23.0,22.0,-100.00,SSW,207,0.0,1.0,96,-99.99,,,-99.99,,2013-03-02 06:51:00,